sensor_id;sensor_type;location;lat;lon;timestamp;P1;durP1;ratioP1;P2;durP2;ratioP2
44446;SDS011;30152;52.066;5.358;2022-11-11T00:01:50;29.08;;;12.57;;
44446;SDS011;30152;52.066;5.358;2022-11-11T00:04:16;22.63;;;12.07;;
44446;SDS011;30152;52.066;5.358;2022-11-11T00:06:41;24.00;;;13.07;;
44446;SDS011;30152;52.066;5.358;2022-11-11T00:09:09;31.20;;;13.45;;
44446;SDS011;30152;52.066;5.358;2022-11-11T00:11:35;26.50;;;13.30;;
44446;SDS011;30152;52.066;5.358;2022-11-11T00:14:01;29.00;;;13.90;;
44446;SDS011;30152;52.066;5.358;2022-11-11T00:16:28;25.85;;;13.73;;
44446;SDS011;30152;52.066;5.358;2022-11-11T00:19:13;36.33;;;14.35;;
44446;SDS011;30152;52.066;5.358;2022-11-11T00:21:57;32.65;;;15.65;;
44446;SDS011;30152;52.066;5.358;2022-11-11T00:24:42;27.52;;;14.20;;
44446;SDS011;30152;52.066;5.358;2022-11-11T00:27:26;34.60;;;15.43;;
44446;SDS011;30152;52.066;5.358;2022-11-11T00:29:52;35.17;;;17.48;;
44446;SDS011;30152;52.066;5.358;2022-11-11T00:32:17;33.03;;;15.75;;
44446;SDS011;30152;52.066;5.358;2022-11-11T00:34:55;32.83;;;16.50;;
44446;SDS011;30152;52.066;5.358;2022-11-11T00:37:41;27.73;;;15.57;;
44446;SDS011;30152;52.066;5.358;2022-11-11T00:40:08;29.73;;;16.10;;
44446;SDS011;30152;52.066;5.358;2022-11-11T00:42:35;36.90;;;16.73;;
44446;SDS011;30152;52.066;5.358;2022-11-11T00:45:01;32.65;;;16.77;;
44446;SDS011;30152;52.066;5.358;2022-11-11T00:47:26;31.33;;;17.17;;
44446;SDS011;30152;52.066;5.358;2022-11-11T00:50:12;28.05;;;16.88;;
44446;SDS011;30152;52.066;5.358;2022-11-11T00:52:56;36.58;;;18.75;;
44446;SDS011;30152;52.066;5.358;2022-11-11T00:55:22;36.72;;;18.35;;
44446;SDS011;30152;52.066;5.358;2022-11-11T00:57:48;34.08;;;19.35;;
44446;SDS011;30152;52.066;5.358;2022-11-11T01:00:14;36.58;;;19.38;;
44446;SDS011;30152;52.066;5.358;2022-11-11T01:02:40;39.05;;;20.42;;
44446;SDS011;30152;52.066;5.358;2022-11-11T01:05:06;39.97;;;20.35;;
44446;SDS011;30152;52.066;5.358;2022-11-11T01:07:31;36.55;;;20.45;;
44446;SDS011;30152;52.066;5.358;2022-11-11T01:09:57;36.28;;;21.60;;
44446;SDS011;30152;52.066;5.358;2022-11-11T01:12:23;37.38;;;21.88;;
44446;SDS011;30152;52.066;5.358;2022-11-11T01:14:49;39.67;;;22.70;;
44446;SDS011;30152;52.066;5.358;2022-11-11T01:17:14;40.05;;;21.58;;
44446;SDS011;30152;52.066;5.358;2022-11-11T01:19:40;42.28;;;21.48;;
44446;SDS011;30152;52.066;5.358;2022-11-11T01:22:06;43.47;;;22.80;;
44446;SDS011;30152;52.066;5.358;2022-11-11T01:24:32;43.80;;;23.88;;
44446;SDS011;30152;52.066;5.358;2022-11-11T01:26:58;39.15;;;23.35;;
44446;SDS011;30152;52.066;5.358;2022-11-11T01:29:24;42.65;;;22.73;;
44446;SDS011;30152;52.066;5.358;2022-11-11T01:31:49;42.05;;;24.35;;
44446;SDS011;30152;52.066;5.358;2022-11-11T01:34:15;45.65;;;23.77;;
44446;SDS011;30152;52.066;5.358;2022-11-11T01:36:41;41.33;;;24.50;;
44446;SDS011;30152;52.066;5.358;2022-11-11T01:39:07;41.38;;;24.95;;
44446;SDS011;30152;52.066;5.358;2022-11-11T01:41:33;43.63;;;25.90;;
44446;SDS011;30152;52.066;5.358;2022-11-11T01:46:39;47.05;;;26.50;;
44446;SDS011;30152;52.066;5.358;2022-11-11T01:55:01;42.30;;;25.90;;
44446;SDS011;30152;52.066;5.358;2022-11-11T01:57:48;48.35;;;27.65;;
44446;SDS011;30152;52.066;5.358;2022-11-11T02:00:24;51.53;;;27.63;;
44446;SDS011;30152;52.066;5.358;2022-11-11T02:02:52;44.50;;;28.38;;
44446;SDS011;30152;52.066;5.358;2022-11-11T02:05:21;49.63;;;30.45;;
44446;SDS011;30152;52.066;5.358;2022-11-11T02:08:07;50.42;;;29.23;;
44446;SDS011;30152;52.066;5.358;2022-11-11T02:11:01;50.00;;;27.42;;
44446;SDS011;30152;52.066;5.358;2022-11-11T02:13:39;50.38;;;29.25;;
44446;SDS011;30152;52.066;5.358;2022-11-11T02:16:25;49.17;;;29.02;;
44446;SDS011;30152;52.066;5.358;2022-11-11T02:18:52;51.55;;;27.60;;
44446;SDS011;30152;52.066;5.358;2022-11-11T02:21:20;52.70;;;28.15;;
44446;SDS011;30152;52.066;5.358;2022-11-11T02:26:26;46.13;;;25.75;;
44446;SDS011;30152;52.066;5.358;2022-11-11T02:28:54;51.55;;;27.30;;
44446;SDS011;30152;52.066;5.358;2022-11-11T02:31:24;54.03;;;27.10;;
44446;SDS011;30152;52.066;5.358;2022-11-11T02:33:54;47.78;;;28.05;;
44446;SDS011;30152;52.066;5.358;2022-11-11T02:36:20;51.85;;;27.83;;
44446;SDS011;30152;52.066;5.358;2022-11-11T02:38:46;49.60;;;28.00;;
44446;SDS011;30152;52.066;5.358;2022-11-11T02:41:11;54.75;;;27.90;;
44446;SDS011;30152;52.066;5.358;2022-11-11T02:43:56;50.20;;;27.75;;
44446;SDS011;30152;52.066;5.358;2022-11-11T02:46:22;48.00;;;27.63;;
44446;SDS011;30152;52.066;5.358;2022-11-11T02:48:48;52.20;;;27.20;;
44446;SDS011;30152;52.066;5.358;2022-11-11T02:51:14;52.53;;;29.95;;
44446;SDS011;30152;52.066;5.358;2022-11-11T02:53:39;53.53;;;28.65;;
44446;SDS011;30152;52.066;5.358;2022-11-11T02:56:05;52.78;;;28.25;;
44446;SDS011;30152;52.066;5.358;2022-11-11T02:58:31;53.55;;;29.02;;
44446;SDS011;30152;52.066;5.358;2022-11-11T03:00:57;62.65;;;29.90;;
44446;SDS011;30152;52.066;5.358;2022-11-11T03:03:23;47.55;;;27.85;;
44446;SDS011;30152;52.066;5.358;2022-11-11T03:05:49;57.88;;;27.98;;
44446;SDS011;30152;52.066;5.358;2022-11-11T03:08:15;55.00;;;28.95;;
44446;SDS011;30152;52.066;5.358;2022-11-11T03:10:41;52.05;;;29.75;;
44446;SDS011;30152;52.066;5.358;2022-11-11T03:13:06;55.17;;;29.20;;
44446;SDS011;30152;52.066;5.358;2022-11-11T03:15:32;52.25;;;27.92;;
44446;SDS011;30152;52.066;5.358;2022-11-11T03:17:58;52.45;;;26.38;;
44446;SDS011;30152;52.066;5.358;2022-11-11T03:20:24;44.15;;;25.38;;
44446;SDS011;30152;52.066;5.358;2022-11-11T03:23:13;48.08;;;26.25;;
44446;SDS011;30152;52.066;5.358;2022-11-11T03:25:43;49.78;;;26.27;;
44446;SDS011;30152;52.066;5.358;2022-11-11T03:30:37;54.45;;;26.55;;
44446;SDS011;30152;52.066;5.358;2022-11-11T03:33:04;41.83;;;24.73;;
44446;SDS011;30152;52.066;5.358;2022-11-11T03:35:30;51.55;;;27.00;;
44446;SDS011;30152;52.066;5.358;2022-11-11T03:37:56;44.00;;;23.70;;
44446;SDS011;30152;52.066;5.358;2022-11-11T03:43:07;50.63;;;24.58;;
44446;SDS011;30152;52.066;5.358;2022-11-11T03:45:32;54.53;;;25.05;;
44446;SDS011;30152;52.066;5.358;2022-11-11T03:47:58;44.72;;;24.90;;
44446;SDS011;30152;52.066;5.358;2022-11-11T03:50:24;48.92;;;24.42;;
44446;SDS011;30152;52.066;5.358;2022-11-11T03:52:50;45.88;;;25.02;;
44446;SDS011;30152;52.066;5.358;2022-11-11T03:55:16;42.72;;;23.67;;
44446;SDS011;30152;52.066;5.358;2022-11-11T03:57:43;46.30;;;24.40;;
44446;SDS011;30152;52.066;5.358;2022-11-11T04:00:13;47.88;;;24.23;;
44446;SDS011;30152;52.066;5.358;2022-11-11T04:02:49;40.20;;;23.60;;
44446;SDS011;30152;52.066;5.358;2022-11-11T04:05:34;44.33;;;21.67;;
44446;SDS011;30152;52.066;5.358;2022-11-11T04:08:18;44.58;;;22.73;;
44446;SDS011;30152;52.066;5.358;2022-11-11T04:11:11;41.78;;;21.95;;
44446;SDS011;30152;52.066;5.358;2022-11-11T04:13:39;41.83;;;22.85;;
44446;SDS011;30152;52.066;5.358;2022-11-11T04:16:25;42.65;;;22.48;;
44446;SDS011;30152;52.066;5.358;2022-11-11T04:18:51;38.58;;;21.38;;
44446;SDS011;30152;52.066;5.358;2022-11-11T04:21:35;38.33;;;19.83;;
44446;SDS011;30152;52.066;5.358;2022-11-11T04:24:08;38.20;;;21.23;;
44446;SDS011;30152;52.066;5.358;2022-11-11T04:26:53;41.20;;;22.23;;
44446;SDS011;30152;52.066;5.358;2022-11-11T04:29:20;45.70;;;22.77;;
44446;SDS011;30152;52.066;5.358;2022-11-11T04:31:52;42.25;;;22.20;;
44446;SDS011;30152;52.066;5.358;2022-11-11T04:34:37;35.22;;;20.85;;
44446;SDS011;30152;52.066;5.358;2022-11-11T04:37:03;36.90;;;20.80;;
44446;SDS011;30152;52.066;5.358;2022-11-11T04:39:28;40.65;;;21.52;;
44446;SDS011;30152;52.066;5.358;2022-11-11T04:44:38;38.65;;;21.02;;
44446;SDS011;30152;52.066;5.358;2022-11-11T04:47:23;37.67;;;19.23;;
44446;SDS011;30152;52.066;5.358;2022-11-11T04:49:48;38.85;;;19.23;;
44446;SDS011;30152;52.066;5.358;2022-11-11T04:52:14;35.70;;;19.55;;
44446;SDS011;30152;52.066;5.358;2022-11-11T04:54:53;37.00;;;19.13;;
44446;SDS011;30152;52.066;5.358;2022-11-11T04:57:41;36.55;;;19.75;;
44446;SDS011;30152;52.066;5.358;2022-11-11T05:00:16;37.15;;;19.77;;
44446;SDS011;30152;52.066;5.358;2022-11-11T05:02:42;46.05;;;20.98;;
44446;SDS011;30152;52.066;5.358;2022-11-11T05:05:27;35.85;;;18.83;;
44446;SDS011;30152;52.066;5.358;2022-11-11T05:08:13;40.85;;;20.63;;
44446;SDS011;30152;52.066;5.358;2022-11-11T05:10:57;35.95;;;20.90;;
44446;SDS011;30152;52.066;5.358;2022-11-11T05:13:23;38.78;;;20.88;;
44446;SDS011;30152;52.066;5.358;2022-11-11T05:16:10;41.72;;;21.27;;
44446;SDS011;30152;52.066;5.358;2022-11-11T05:18:58;40.97;;;21.35;;
44446;SDS011;30152;52.066;5.358;2022-11-11T05:21:42;47.65;;;24.33;;
44446;SDS011;30152;52.066;5.358;2022-11-11T05:24:08;36.22;;;20.38;;
44446;SDS011;30152;52.066;5.358;2022-11-11T05:26:52;39.67;;;22.00;;
44446;SDS011;30152;52.066;5.358;2022-11-11T05:29:18;36.17;;;21.50;;
44446;SDS011;30152;52.066;5.358;2022-11-11T05:31:43;39.63;;;22.25;;
44446;SDS011;30152;52.066;5.358;2022-11-11T05:34:09;40.42;;;22.42;;
44446;SDS011;30152;52.066;5.358;2022-11-11T05:36:35;46.72;;;23.08;;
44446;SDS011;30152;52.066;5.358;2022-11-11T05:39:00;37.65;;;21.10;;
44446;SDS011;30152;52.066;5.358;2022-11-11T05:41:26;38.15;;;21.42;;
44446;SDS011;30152;52.066;5.358;2022-11-11T05:43:52;37.13;;;21.98;;
44446;SDS011;30152;52.066;5.358;2022-11-11T05:46:17;37.67;;;22.25;;
44446;SDS011;30152;52.066;5.358;2022-11-11T05:48:43;38.60;;;21.30;;
44446;SDS011;30152;52.066;5.358;2022-11-11T05:51:35;40.60;;;22.10;;
44446;SDS011;30152;52.066;5.358;2022-11-11T05:54:00;39.60;;;20.58;;
44446;SDS011;30152;52.066;5.358;2022-11-11T05:56:26;39.70;;;21.17;;
44446;SDS011;30152;52.066;5.358;2022-11-11T05:58:51;43.35;;;23.33;;
44446;SDS011;30152;52.066;5.358;2022-11-11T06:01:17;39.50;;;21.50;;
44446;SDS011;30152;52.066;5.358;2022-11-11T06:03:43;40.15;;;21.85;;
44446;SDS011;30152;52.066;5.358;2022-11-11T06:06:10;43.88;;;20.88;;
44446;SDS011;30152;52.066;5.358;2022-11-11T06:08:36;39.38;;;20.65;;
44446;SDS011;30152;52.066;5.358;2022-11-11T06:11:02;45.45;;;23.67;;
44446;SDS011;30152;52.066;5.358;2022-11-11T06:13:28;42.22;;;21.27;;
44446;SDS011;30152;52.066;5.358;2022-11-11T06:15:54;41.13;;;20.85;;
44446;SDS011;30152;52.066;5.358;2022-11-11T06:18:21;39.83;;;23.15;;
44446;SDS011;30152;52.066;5.358;2022-11-11T06:20:51;39.25;;;22.63;;
44446;SDS011;30152;52.066;5.358;2022-11-11T06:23:17;40.50;;;22.42;;
44446;SDS011;30152;52.066;5.358;2022-11-11T06:25:43;41.60;;;22.70;;
44446;SDS011;30152;52.066;5.358;2022-11-11T06:28:28;44.47;;;23.85;;
44446;SDS011;30152;52.066;5.358;2022-11-11T06:30:54;46.63;;;24.48;;
44446;SDS011;30152;52.066;5.358;2022-11-11T06:33:20;42.67;;;22.75;;
44446;SDS011;30152;52.066;5.358;2022-11-11T06:35:46;41.88;;;21.40;;
44446;SDS011;30152;52.066;5.358;2022-11-11T06:38:12;44.17;;;23.83;;
44446;SDS011;30152;52.066;5.358;2022-11-11T06:40:38;46.25;;;24.67;;
44446;SDS011;30152;52.066;5.358;2022-11-11T06:43:05;45.92;;;24.27;;
44446;SDS011;30152;52.066;5.358;2022-11-11T06:45:31;45.85;;;23.83;;
44446;SDS011;30152;52.066;5.358;2022-11-11T06:47:59;44.13;;;23.60;;
44446;SDS011;30152;52.066;5.358;2022-11-11T06:50:25;42.53;;;23.65;;
44446;SDS011;30152;52.066;5.358;2022-11-11T06:52:52;39.13;;;21.27;;
44446;SDS011;30152;52.066;5.358;2022-11-11T06:55:18;39.63;;;22.92;;
44446;SDS011;30152;52.066;5.358;2022-11-11T06:57:44;39.78;;;22.17;;
44446;SDS011;30152;52.066;5.358;2022-11-11T07:00:10;42.15;;;23.02;;
44446;SDS011;30152;52.066;5.358;2022-11-11T07:02:37;38.80;;;22.08;;
44446;SDS011;30152;52.066;5.358;2022-11-11T07:05:03;49.13;;;23.13;;
44446;SDS011;30152;52.066;5.358;2022-11-11T07:07:29;41.38;;;21.50;;
44446;SDS011;30152;52.066;5.358;2022-11-11T07:09:55;49.85;;;22.60;;
44446;SDS011;30152;52.066;5.358;2022-11-11T07:12:21;40.80;;;21.73;;
44446;SDS011;30152;52.066;5.358;2022-11-11T07:14:47;39.78;;;22.00;;
44446;SDS011;30152;52.066;5.358;2022-11-11T07:17:13;42.95;;;21.75;;
44446;SDS011;30152;52.066;5.358;2022-11-11T07:19:39;39.78;;;21.67;;
44446;SDS011;30152;52.066;5.358;2022-11-11T07:22:05;39.58;;;20.45;;
44446;SDS011;30152;52.066;5.358;2022-11-11T07:24:31;42.92;;;21.00;;
44446;SDS011;30152;52.066;5.358;2022-11-11T07:26:56;43.05;;;21.50;;
44446;SDS011;30152;52.066;5.358;2022-11-11T07:29:23;41.85;;;21.30;;
44446;SDS011;30152;52.066;5.358;2022-11-11T07:31:49;43.42;;;21.45;;
44446;SDS011;30152;52.066;5.358;2022-11-11T07:34:15;43.80;;;20.67;;
44446;SDS011;30152;52.066;5.358;2022-11-11T07:36:41;38.92;;;20.83;;
44446;SDS011;30152;52.066;5.358;2022-11-11T07:39:06;39.22;;;21.20;;
44446;SDS011;30152;52.066;5.358;2022-11-11T07:41:32;40.17;;;20.35;;
44446;SDS011;30152;52.066;5.358;2022-11-11T07:43:57;37.65;;;19.33;;
44446;SDS011;30152;52.066;5.358;2022-11-11T07:46:23;38.45;;;20.48;;
44446;SDS011;30152;52.066;5.358;2022-11-11T07:48:49;34.95;;;19.70;;
44446;SDS011;30152;52.066;5.358;2022-11-11T07:51:15;39.53;;;19.95;;
44446;SDS011;30152;52.066;5.358;2022-11-11T07:53:40;43.40;;;21.50;;
44446;SDS011;30152;52.066;5.358;2022-11-11T07:56:06;42.17;;;19.73;;
44446;SDS011;30152;52.066;5.358;2022-11-11T07:58:32;37.58;;;19.48;;
44446;SDS011;30152;52.066;5.358;2022-11-11T08:00:58;40.58;;;20.20;;
44446;SDS011;30152;52.066;5.358;2022-11-11T08:03:24;38.10;;;21.05;;
44446;SDS011;30152;52.066;5.358;2022-11-11T08:05:51;40.72;;;20.92;;
44446;SDS011;30152;52.066;5.358;2022-11-11T08:08:17;36.75;;;20.38;;
44446;SDS011;30152;52.066;5.358;2022-11-11T08:10:48;46.25;;;21.50;;
44446;SDS011;30152;52.066;5.358;2022-11-11T08:13:14;40.35;;;19.25;;
44446;SDS011;30152;52.066;5.358;2022-11-11T08:18:26;39.92;;;19.73;;
44446;SDS011;30152;52.066;5.358;2022-11-11T08:20:52;40.20;;;20.60;;
44446;SDS011;30152;52.066;5.358;2022-11-11T08:23:18;36.55;;;19.15;;
44446;SDS011;30152;52.066;5.358;2022-11-11T08:25:50;39.60;;;19.52;;
44446;SDS011;30152;52.066;5.358;2022-11-11T08:28:16;38.95;;;19.00;;
44446;SDS011;30152;52.066;5.358;2022-11-11T08:30:42;37.13;;;19.33;;
44446;SDS011;30152;52.066;5.358;2022-11-11T08:33:11;35.35;;;18.85;;
44446;SDS011;30152;52.066;5.358;2022-11-11T08:35:38;35.72;;;19.58;;
44446;SDS011;30152;52.066;5.358;2022-11-11T08:38:03;38.40;;;19.25;;
44446;SDS011;30152;52.066;5.358;2022-11-11T08:40:30;35.70;;;18.27;;
44446;SDS011;30152;52.066;5.358;2022-11-11T08:42:56;35.35;;;19.48;;
44446;SDS011;30152;52.066;5.358;2022-11-11T08:45:23;34.58;;;18.42;;
44446;SDS011;30152;52.066;5.358;2022-11-11T08:47:49;34.67;;;18.38;;
44446;SDS011;30152;52.066;5.358;2022-11-11T08:50:15;41.03;;;18.80;;
44446;SDS011;30152;52.066;5.358;2022-11-11T08:52:45;33.15;;;18.23;;
44446;SDS011;30152;52.066;5.358;2022-11-11T08:55:11;28.73;;;17.73;;
44446;SDS011;30152;52.066;5.358;2022-11-11T08:57:37;33.00;;;17.05;;
44446;SDS011;30152;52.066;5.358;2022-11-11T09:00:04;29.73;;;16.88;;
44446;SDS011;30152;52.066;5.358;2022-11-11T09:02:30;32.53;;;17.42;;
44446;SDS011;30152;52.066;5.358;2022-11-11T09:04:58;33.33;;;17.63;;
44446;SDS011;30152;52.066;5.358;2022-11-11T09:07:23;36.50;;;18.65;;
44446;SDS011;30152;52.066;5.358;2022-11-11T09:09:49;32.17;;;17.65;;
44446;SDS011;30152;52.066;5.358;2022-11-11T09:12:15;32.28;;;17.65;;
44446;SDS011;30152;52.066;5.358;2022-11-11T09:14:40;32.78;;;17.27;;
44446;SDS011;30152;52.066;5.358;2022-11-11T09:17:06;36.10;;;18.38;;
44446;SDS011;30152;52.066;5.358;2022-11-11T09:19:32;35.45;;;17.13;;
44446;SDS011;30152;52.066;5.358;2022-11-11T09:21:58;33.92;;;17.98;;
44446;SDS011;30152;52.066;5.358;2022-11-11T09:24:23;31.60;;;17.48;;
44446;SDS011;30152;52.066;5.358;2022-11-11T09:26:49;32.00;;;17.30;;
44446;SDS011;30152;52.066;5.358;2022-11-11T09:29:15;31.38;;;17.77;;
44446;SDS011;30152;52.066;5.358;2022-11-11T09:31:42;40.05;;;18.67;;
44446;SDS011;30152;52.066;5.358;2022-11-11T09:34:08;36.05;;;18.63;;
44446;SDS011;30152;52.066;5.358;2022-11-11T09:36:34;35.90;;;18.35;;
44446;SDS011;30152;52.066;5.358;2022-11-11T09:39:01;34.30;;;17.98;;
44446;SDS011;30152;52.066;5.358;2022-11-11T09:41:47;37.33;;;19.13;;
44446;SDS011;30152;52.066;5.358;2022-11-11T09:50:23;32.28;;;18.70;;
44446;SDS011;30152;52.066;5.358;2022-11-11T09:53:00;32.35;;;18.40;;
44446;SDS011;30152;52.066;5.358;2022-11-11T09:55:42;41.28;;;18.60;;
44446;SDS011;30152;52.066;5.358;2022-11-11T10:01:45;32.28;;;17.50;;
44446;SDS011;30152;52.066;5.358;2022-11-11T10:04:19;30.02;;;16.98;;
44446;SDS011;30152;52.066;5.358;2022-11-11T10:06:52;31.27;;;16.10;;
44446;SDS011;30152;52.066;5.358;2022-11-11T10:09:37;28.27;;;16.70;;
44446;SDS011;30152;52.066;5.358;2022-11-11T10:12:11;28.42;;;17.10;;
44446;SDS011;30152;52.066;5.358;2022-11-11T10:14:41;29.27;;;15.57;;
44446;SDS011;30152;52.066;5.358;2022-11-11T10:17:17;33.08;;;17.67;;
44446;SDS011;30152;52.066;5.358;2022-11-11T10:20:22;26.35;;;16.90;;
44446;SDS011;30152;52.066;5.358;2022-11-11T10:28:02;27.35;;;16.20;;
44446;SDS011;30152;52.066;5.358;2022-11-11T10:30:29;30.75;;;16.92;;
44446;SDS011;30152;52.066;5.358;2022-11-11T10:35:22;29.60;;;16.80;;
44446;SDS011;30152;52.066;5.358;2022-11-11T10:37:55;33.47;;;17.42;;
44446;SDS011;30152;52.066;5.358;2022-11-11T10:40:57;30.40;;;17.73;;
44446;SDS011;30152;52.066;5.358;2022-11-11T10:43:20;34.42;;;19.20;;
44446;SDS011;30152;52.066;5.358;2022-11-11T10:46:01;30.45;;;18.40;;
44446;SDS011;30152;52.066;5.358;2022-11-11T10:51:15;33.45;;;19.75;;
44446;SDS011;30152;52.066;5.358;2022-11-11T10:56:37;31.42;;;18.25;;
44446;SDS011;30152;52.066;5.358;2022-11-11T10:59:15;30.15;;;18.73;;
44446;SDS011;30152;52.066;5.358;2022-11-11T11:07:12;29.53;;;18.43;;
44446;SDS011;30152;52.066;5.358;2022-11-11T11:09:48;28.90;;;16.75;;
44446;SDS011;30152;52.066;5.358;2022-11-11T11:15:15;27.15;;;16.75;;
44446;SDS011;30152;52.066;5.358;2022-11-11T11:20:20;25.92;;;15.90;;
44446;SDS011;30152;52.066;5.358;2022-11-11T11:22:50;29.77;;;16.92;;
44446;SDS011;30152;52.066;5.358;2022-11-11T11:25:18;28.23;;;16.65;;
44446;SDS011;30152;52.066;5.358;2022-11-11T11:27:45;28.50;;;17.30;;
44446;SDS011;30152;52.066;5.358;2022-11-11T11:30:20;29.05;;;18.05;;
44446;SDS011;30152;52.066;5.358;2022-11-11T11:32:55;26.02;;;16.40;;
44446;SDS011;30152;52.066;5.358;2022-11-11T11:35:40;26.45;;;17.35;;
44446;SDS011;30152;52.066;5.358;2022-11-11T11:38:08;27.90;;;17.27;;
44446;SDS011;30152;52.066;5.358;2022-11-11T11:40:49;27.65;;;16.67;;
44446;SDS011;30152;52.066;5.358;2022-11-11T11:43:36;23.65;;;14.30;;
44446;SDS011;30152;52.066;5.358;2022-11-11T11:49:11;29.40;;;16.10;;
44446;SDS011;30152;52.066;5.358;2022-11-11T11:52:03;27.33;;;16.73;;
44446;SDS011;30152;52.066;5.358;2022-11-11T12:00:01;26.15;;;15.13;;
44446;SDS011;30152;52.066;5.358;2022-11-11T12:08:16;28.30;;;16.02;;
44446;SDS011;30152;52.066;5.358;2022-11-11T12:18:50;25.92;;;16.27;;
44446;SDS011;30152;52.066;5.358;2022-11-11T12:21:41;34.90;;;20.15;;
44446;SDS011;30152;52.066;5.358;2022-11-11T12:24:48;32.60;;;19.15;;
44446;SDS011;30152;52.066;5.358;2022-11-11T12:30:37;33.95;;;19.00;;
44446;SDS011;30152;52.066;5.358;2022-11-11T12:33:16;34.50;;;18.80;;
44446;SDS011;30152;52.066;5.358;2022-11-11T12:36:06;36.25;;;19.80;;
44446;SDS011;30152;52.066;5.358;2022-11-11T12:39:38;31.33;;;18.88;;
44446;SDS011;30152;52.066;5.358;2022-11-11T12:41:58;32.22;;;19.20;;
44446;SDS011;30152;52.066;5.358;2022-11-11T12:47:24;34.30;;;18.90;;
44446;SDS011;30152;52.066;5.358;2022-11-11T12:52:51;34.05;;;18.30;;
44446;SDS011;30152;52.066;5.358;2022-11-11T12:55:29;36.75;;;18.45;;
44446;SDS011;30152;52.066;5.358;2022-11-11T12:58:23;31.73;;;18.58;;
44446;SDS011;30152;52.066;5.358;2022-11-11T13:11:32;27.42;;;15.85;;
44446;SDS011;30152;52.066;5.358;2022-11-11T13:16:59;26.75;;;15.82;;
44446;SDS011;30152;52.066;5.358;2022-11-11T13:19:36;28.75;;;15.55;;
44446;SDS011;30152;52.066;5.358;2022-11-11T13:22:29;28.17;;;15.98;;
44446;SDS011;30152;52.066;5.358;2022-11-11T13:24:56;24.30;;;14.90;;
44446;SDS011;30152;52.066;5.358;2022-11-11T13:27:35;31.85;;;15.73;;
44446;SDS011;30152;52.066;5.358;2022-11-11T13:31:01;26.30;;;14.88;;
44446;SDS011;30152;52.066;5.358;2022-11-11T13:35:36;25.00;;;14.88;;
44446;SDS011;30152;52.066;5.358;2022-11-11T13:38:08;28.02;;;14.48;;
44446;SDS011;30152;52.066;5.358;2022-11-11T13:40:57;22.50;;;14.45;;
44446;SDS011;30152;52.066;5.358;2022-11-11T13:43:28;24.92;;;13.13;;
44446;SDS011;30152;52.066;5.358;2022-11-11T13:45:58;27.98;;;13.38;;
44446;SDS011;30152;52.066;5.358;2022-11-11T13:51:10;27.45;;;13.57;;
44446;SDS011;30152;52.066;5.358;2022-11-11T13:53:49;23.10;;;13.15;;
44446;SDS011;30152;52.066;5.358;2022-11-11T13:56:28;25.73;;;14.68;;
44446;SDS011;30152;52.066;5.358;2022-11-11T13:59:01;22.50;;;12.98;;
44446;SDS011;30152;52.066;5.358;2022-11-11T14:01:34;25.23;;;13.05;;
44446;SDS011;30152;52.066;5.358;2022-11-11T14:04:03;26.38;;;13.82;;
44446;SDS011;30152;52.066;5.358;2022-11-11T14:09:37;20.58;;;12.50;;
44446;SDS011;30152;52.066;5.358;2022-11-11T14:12:33;22.92;;;11.95;;
44446;SDS011;30152;52.066;5.358;2022-11-11T14:15:08;21.50;;;12.25;;
44446;SDS011;30152;52.066;5.358;2022-11-11T14:20:44;21.10;;;10.88;;
44446;SDS011;30152;52.066;5.358;2022-11-11T14:23:15;19.98;;;10.23;;
44446;SDS011;30152;52.066;5.358;2022-11-11T14:28:39;18.60;;;9.15;;
44446;SDS011;30152;52.066;5.358;2022-11-11T15:02:57;22.35;;;8.85;;
44446;SDS011;30152;52.066;5.358;2022-11-11T15:08:14;16.13;;;8.88;;
44446;SDS011;30152;52.066;5.358;2022-11-11T15:18:55;15.30;;;8.23;;
44446;SDS011;30152;52.066;5.358;2022-11-11T15:32:45;13.65;;;6.65;;
44446;SDS011;30152;52.066;5.358;2022-11-11T15:35:29;19.13;;;7.93;;
44446;SDS011;30152;52.066;5.358;2022-11-11T15:37:59;13.55;;;6.93;;
44446;SDS011;30152;52.066;5.358;2022-11-11T15:40:30;16.00;;;7.13;;
44446;SDS011;30152;52.066;5.358;2022-11-11T15:43:10;14.45;;;7.35;;
44446;SDS011;30152;52.066;5.358;2022-11-11T15:45:40;12.35;;;7.25;;
44446;SDS011;30152;52.066;5.358;2022-11-11T15:48:12;17.65;;;7.57;;
44446;SDS011;30152;52.066;5.358;2022-11-11T15:50:44;17.88;;;7.43;;
44446;SDS011;30152;52.066;5.358;2022-11-11T15:53:10;14.90;;;7.55;;
44446;SDS011;30152;52.066;5.358;2022-11-11T15:55:37;13.57;;;6.72;;
44446;SDS011;30152;52.066;5.358;2022-11-11T15:58:37;13.20;;;7.22;;
44446;SDS011;30152;52.066;5.358;2022-11-11T16:00:56;16.02;;;6.85;;
44446;SDS011;30152;52.066;5.358;2022-11-11T16:03:38;17.23;;;7.25;;
44446;SDS011;30152;52.066;5.358;2022-11-11T16:06:09;19.65;;;8.68;;
44446;SDS011;30152;52.066;5.358;2022-11-11T16:08:39;15.38;;;8.07;;
44446;SDS011;30152;52.066;5.358;2022-11-11T16:11:08;15.02;;;7.95;;
44446;SDS011;30152;52.066;5.358;2022-11-11T16:13:38;16.58;;;8.32;;
44446;SDS011;30152;52.066;5.358;2022-11-11T16:16:22;21.48;;;8.60;;
44446;SDS011;30152;52.066;5.358;2022-11-11T16:21:56;14.60;;;7.85;;
44446;SDS011;30152;52.066;5.358;2022-11-11T16:24:29;18.17;;;8.13;;
44446;SDS011;30152;52.066;5.358;2022-11-11T16:26:57;15.13;;;7.60;;
44446;SDS011;30152;52.066;5.358;2022-11-11T16:29:23;12.95;;;7.20;;
44446;SDS011;30152;52.066;5.358;2022-11-11T16:31:56;20.17;;;7.93;;
44446;SDS011;30152;52.066;5.358;2022-11-11T16:37:04;16.88;;;8.35;;
44446;SDS011;30152;52.066;5.358;2022-11-11T16:39:31;18.92;;;9.23;;
44446;SDS011;30152;52.066;5.358;2022-11-11T16:42:01;17.10;;;8.20;;
44446;SDS011;30152;52.066;5.358;2022-11-11T16:46:54;15.25;;;8.18;;
44446;SDS011;30152;52.066;5.358;2022-11-11T16:49:41;16.30;;;9.27;;
44446;SDS011;30152;52.066;5.358;2022-11-11T16:52:12;17.63;;;9.05;;
44446;SDS011;30152;52.066;5.358;2022-11-11T16:54:52;16.33;;;8.52;;
44446;SDS011;30152;52.066;5.358;2022-11-11T16:57:24;18.65;;;8.43;;
44446;SDS011;30152;52.066;5.358;2022-11-11T16:59:54;19.45;;;8.82;;
44446;SDS011;30152;52.066;5.358;2022-11-11T17:02:24;17.13;;;9.15;;
44446;SDS011;30152;52.066;5.358;2022-11-11T17:04:55;19.48;;;9.20;;
44446;SDS011;30152;52.066;5.358;2022-11-11T17:07:29;18.13;;;9.18;;
44446;SDS011;30152;52.066;5.358;2022-11-11T17:10:17;19.80;;;9.13;;
44446;SDS011;30152;52.066;5.358;2022-11-11T17:12:49;15.15;;;8.73;;
44446;SDS011;30152;52.066;5.358;2022-11-11T17:15:16;15.70;;;9.05;;
44446;SDS011;30152;52.066;5.358;2022-11-11T17:17:43;18.10;;;9.23;;
44446;SDS011;30152;52.066;5.358;2022-11-11T17:20:11;17.15;;;8.68;;
44446;SDS011;30152;52.066;5.358;2022-11-11T17:22:48;20.05;;;9.90;;
44446;SDS011;30152;52.066;5.358;2022-11-11T17:25:16;18.60;;;8.90;;
44446;SDS011;30152;52.066;5.358;2022-11-11T17:27:42;15.95;;;9.25;;
44446;SDS011;30152;52.066;5.358;2022-11-11T17:30:09;17.73;;;9.05;;
44446;SDS011;30152;52.066;5.358;2022-11-11T17:32:36;19.33;;;9.43;;
44446;SDS011;30152;52.066;5.358;2022-11-11T17:35:02;21.67;;;11.88;;
44446;SDS011;30152;52.066;5.358;2022-11-11T17:37:28;23.52;;;11.55;;
44446;SDS011;30152;52.066;5.358;2022-11-11T17:39:58;26.63;;;15.25;;
44446;SDS011;30152;52.066;5.358;2022-11-11T17:42:24;25.50;;;13.52;;
44446;SDS011;30152;52.066;5.358;2022-11-11T17:44:50;28.75;;;14.00;;